createdAt,value
2019-03-31T00:01:08.050Z,84.30
2019-03-31T00:03:31.963Z,82.02
2019-03-31T00:06:00.490Z,83.03
2019-03-31T00:08:29.419Z,86.17
2019-03-31T00:11:00.511Z,82.40
2019-03-31T00:13:28.408Z,85.30
2019-03-31T00:15:57.196Z,87.72
2019-03-31T00:18:25.788Z,91.20
2019-03-31T00:20:54.418Z,84.60
2019-03-31T00:23:22.954Z,90.28
2019-03-31T00:25:52.261Z,88.35
2019-03-31T00:28:20.878Z,96.02
2019-03-31T00:30:49.797Z,92.65
2019-03-31T00:33:18.488Z,94.85
2019-03-31T00:35:47.050Z,90.57
2019-03-31T00:38:15.566Z,89.10
2019-03-31T00:40:44.502Z,99.07
2019-03-31T00:43:13.035Z,87.78
2019-03-31T00:45:41.548Z,98.90
2019-03-31T00:48:10.154Z,91.72
2019-03-31T00:50:38.772Z,94.62
2019-03-31T00:53:07.337Z,96.63
2019-03-31T00:55:35.969Z,97.45
2019-03-31T00:58:04.586Z,94.40
2019-03-31T01:00:46.813Z,97.45
2019-03-31T01:03:16.265Z,96.17
2019-03-31T01:05:46.129Z,100.40
2019-03-31T01:08:15.800Z,100.75
2019-03-31T01:10:44.491Z,100.02
2019-03-31T01:13:13.550Z,103.10
2019-03-31T01:15:42.092Z,105.27
2019-03-31T01:18:11.410Z,105.80
2019-03-31T01:20:40.129Z,104.67
2019-03-31T01:23:09.198Z,108.10
2019-03-31T01:25:37.852Z,111.47
2019-03-31T01:28:06.490Z,111.65
2019-03-31T01:30:35.237Z,106.80
2019-03-31T01:33:03.873Z,107.15
2019-03-31T01:35:32.408Z,113.37
2019-03-31T01:38:00.999Z,111.42
2019-03-31T01:40:29.739Z,111.30
2019-03-31T01:42:58.487Z,114.32
2019-03-31T01:45:27.131Z,115.15
2019-03-31T01:47:55.890Z,116.12
2019-03-31T01:50:24.826Z,105.10
2019-03-31T01:52:53.450Z,113.77
2019-03-31T01:55:22.220Z,115.32
2019-03-31T01:57:50.801Z,112.45
2019-03-31T02:00:27.213Z,120.05
2019-03-31T02:02:55.829Z,115.45
2019-03-31T02:05:24.555Z,122.02
2019-03-31T02:07:53.151Z,119.57
2019-03-31T02:10:21.748Z,119.28
2019-03-31T02:12:50.235Z,118.72
2019-03-31T02:15:18.913Z,117.40
2019-03-31T02:17:47.468Z,119.10
2019-03-31T02:20:16.137Z,122.13
2019-03-31T02:22:44.668Z,114.82
2019-03-31T02:25:13.365Z,122.35
2019-03-31T02:27:41.905Z,131.40
2019-03-31T02:30:10.999Z,124.62
2019-03-31T02:32:39.592Z,124.05
2019-03-31T02:35:08.292Z,124.92
2019-03-31T02:37:36.946Z,125.10
2019-03-31T02:40:07.054Z,128.70
2019-03-31T02:42:35.602Z,120.60
2019-03-31T02:45:07.773Z,130.27
2019-03-31T02:47:36.356Z,124.15
2019-03-31T02:50:06.257Z,121.55
2019-03-31T02:52:34.902Z,124.38
2019-03-31T02:55:03.632Z,132.45
2019-03-31T02:57:33.069Z,130.82
2019-03-31T03:00:02.805Z,131.85
2019-03-31T03:02:41.893Z,127.10
2019-03-31T03:05:18.929Z,124.40
2019-03-31T03:07:37.472Z,133.27
2019-03-31T03:10:07.048Z,131.70
2019-03-31T03:12:37.438Z,130.37
2019-03-31T03:15:06.516Z,130.97
2019-03-31T03:17:35.185Z,129.12
2019-03-31T03:20:05.117Z,135.15
2019-03-31T03:22:33.855Z,132.43
2019-03-31T03:25:02.471Z,135.80
2019-03-31T03:27:31.138Z,135.10
2019-03-31T03:30:00.253Z,136.35
2019-03-31T03:32:29.421Z,140.28
2019-03-31T03:34:57.945Z,139.45
2019-03-31T03:37:26.582Z,130.22
2019-03-31T03:39:55.206Z,126.65
2019-03-31T03:42:24.145Z,136.57
2019-03-31T03:44:52.781Z,145.75
2019-03-31T03:47:21.355Z,137.97
2019-03-31T03:49:49.863Z,132.67
2019-03-31T03:52:18.480Z,146.87
2019-03-31T03:54:47.006Z,144.80
2019-03-31T03:57:15.597Z,143.30
2019-03-31T03:59:44.205Z,145.25
2019-03-31T04:02:13.175Z,145.85
2019-03-31T04:04:41.830Z,147.30
2019-03-31T04:07:10.499Z,149.10
2019-03-31T04:09:39.163Z,147.85
2019-03-31T04:12:08.158Z,145.25
2019-03-31T04:14:36.855Z,147.85
2019-03-31T04:17:05.568Z,133.97
2019-03-31T04:19:34.408Z,140.68
2019-03-31T04:22:03.125Z,143.93
2019-03-31T04:24:33.426Z,153.60
2019-03-31T04:27:02.232Z,144.20
2019-03-31T04:29:31.300Z,103.40
2019-03-31T04:31:59.874Z,151.40
2019-03-31T04:34:28.601Z,162.00
2019-03-31T04:36:57.143Z,127.12
2019-03-31T04:39:25.754Z,161.68
2019-03-31T04:41:54.293Z,153.20
2019-03-31T04:44:22.826Z,154.90
2019-03-31T04:46:51.415Z,129.42
2019-03-31T04:49:19.964Z,153.80
2019-03-31T04:51:48.542Z,144.55
2019-03-31T04:54:17.094Z,99.83
2019-03-31T04:56:45.737Z,146.25
2019-03-31T04:59:14.326Z,162.03
2019-03-31T05:01:43.245Z,153.78
2019-03-31T05:04:11.839Z,104.90
2019-03-31T05:06:40.464Z,102.87
2019-03-31T05:09:09.074Z,146.25
2019-03-31T05:11:37.623Z,144.37
2019-03-31T05:14:07.119Z,138.25
2019-03-31T05:16:36.123Z,115.88
2019-03-31T05:19:04.824Z,107.00
2019-03-31T05:21:33.446Z,117.20
2019-03-31T05:24:02.137Z,119.55
2019-03-31T05:26:30.670Z,61.55
2019-03-31T05:28:59.265Z,136.07
2019-03-31T05:31:27.833Z,129.95
2019-03-31T05:33:56.551Z,137.25
2019-03-31T05:36:25.611Z,116.45
2019-03-31T05:38:54.223Z,94.30
2019-03-31T05:41:22.903Z,93.25
2019-03-31T05:44:04.786Z,112.70
2019-03-31T05:46:21.811Z,132.87
2019-03-31T05:48:50.417Z,104.17
2019-03-31T05:51:19.351Z,144.70
2019-03-31T05:53:47.932Z,145.35
2019-03-31T05:56:16.557Z,148.45
2019-03-31T05:58:45.080Z,137.97
2019-03-31T06:01:13.579Z,156.80
2019-03-31T06:03:42.081Z,145.25
2019-03-31T06:06:10.579Z,151.82
2019-03-31T06:08:39.193Z,165.50
2019-03-31T06:11:07.807Z,101.50
2019-03-31T06:13:36.677Z,118.50
2019-03-31T06:16:05.791Z,109.65
2019-03-31T06:18:34.360Z,78.60
2019-03-31T06:21:02.961Z,107.95
2019-03-31T06:23:31.563Z,146.25
2019-03-31T06:26:00.275Z,114.25
2019-03-31T06:28:28.811Z,117.00
2019-03-31T06:30:57.413Z,120.50
2019-03-31T06:33:25.969Z,44.38
2019-03-31T06:35:54.499Z,156.75
2019-03-31T06:38:23.029Z,95.10
2019-03-31T06:40:53.216Z,172.65
2019-03-31T06:43:21.745Z,124.45
2019-03-31T06:45:50.337Z,139.47
2019-03-31T06:48:18.837Z,162.22
2019-03-31T06:50:47.406Z,185.52
2019-03-31T06:53:16.014Z,195.53
2019-03-31T06:55:44.599Z,192.82
2019-03-31T06:58:13.207Z,192.32
2019-03-31T07:00:44.286Z,199.10
2019-03-31T07:03:15.462Z,199.72
2019-03-31T07:05:44.296Z,205.40
2019-03-31T07:08:12.864Z,202.65
2019-03-31T07:10:44.802Z,201.37
2019-03-31T07:13:14.690Z,201.60
2019-03-31T07:15:43.221Z,201.10
2019-03-31T07:18:11.842Z,193.60
2019-03-31T07:20:42.125Z,205.40
2019-03-31T07:23:10.740Z,131.63
2019-03-31T07:25:40.783Z,138.82
2019-03-31T07:28:09.423Z,120.60
2019-03-31T07:30:38.014Z,163.47
2019-03-31T07:33:08.388Z,138.77
2019-03-31T07:35:38.920Z,184.43
2019-03-31T07:38:07.226Z,107.05
2019-03-31T07:40:35.737Z,116.15
2019-03-31T07:43:04.712Z,179.00
2019-03-31T07:45:33.266Z,196.32
2019-03-31T07:48:01.872Z,180.87
2019-03-31T07:50:30.470Z,141.03
2019-03-31T07:52:58.987Z,210.28
2019-03-31T07:55:27.742Z,183.32
2019-03-31T07:57:56.406Z,130.78
2019-03-31T08:00:28.334Z,215.47
2019-03-31T08:03:00.263Z,152.57
2019-03-31T08:05:33.445Z,141.22
2019-03-31T08:07:59.049Z,150.87
2019-03-31T08:10:29.224Z,98.55
2019-03-31T08:12:57.818Z,188.35
2019-03-31T08:15:26.633Z,131.60
2019-03-31T08:17:55.325Z,94.55
2019-03-31T08:20:26.282Z,128.55
2019-03-31T08:22:57.140Z,85.42
2019-03-31T08:25:25.447Z,84.00
2019-03-31T08:27:54.031Z,64.70
2019-03-31T08:30:22.813Z,93.47
2019-03-31T08:32:54.928Z,56.25
2019-03-31T08:35:23.644Z,94.77
2019-03-31T08:37:52.307Z,96.20
2019-03-31T08:40:21.031Z,107.43
2019-03-31T08:42:49.667Z,77.05
2019-03-31T08:45:18.467Z,95.70
2019-03-31T08:47:47.280Z,51.80
2019-03-31T08:50:16.061Z,72.55
2019-03-31T08:52:44.744Z,57.55
2019-03-31T08:55:13.909Z,76.67
2019-03-31T08:57:42.754Z,94.87
2019-03-31T09:00:15.189Z,104.35
2019-03-31T09:02:43.913Z,88.75
2019-03-31T09:05:12.869Z,108.15
2019-03-31T09:07:42.123Z,98.78
2019-03-31T09:10:12.560Z,91.90
2019-03-31T09:12:42.372Z,89.77
2019-03-31T09:15:12.305Z,76.82
2019-03-31T09:17:41.041Z,85.22
2019-03-31T09:20:10.567Z,74.90
2019-03-31T09:22:39.350Z,85.45
2019-03-31T09:25:08.248Z,55.38
2019-03-31T09:27:36.972Z,38.08
2019-03-31T09:30:14.027Z,57.60
2019-03-31T09:32:51.369Z,66.45
2019-03-31T09:35:23.035Z,57.85
2019-03-31T09:37:57.008Z,40.08
2019-03-31T09:40:25.161Z,82.70
2019-03-31T09:42:53.618Z,74.00
2019-03-31T09:45:22.320Z,68.40
2019-03-31T09:47:50.878Z,69.07
2019-03-31T09:50:21.325Z,48.45
2019-03-31T09:52:51.542Z,64.82
2019-03-31T09:55:24.718Z,47.95
2019-03-31T09:57:54.851Z,42.67
2019-03-31T10:00:49.665Z,57.15
2019-03-31T10:03:18.926Z,46.53
2019-03-31T10:05:48.428Z,40.58
2019-03-31T10:08:17.407Z,52.33
2019-03-31T10:10:46.171Z,76.57
2019-03-31T10:13:14.881Z,54.48
2019-03-31T10:15:43.544Z,50.75
2019-03-31T10:18:13.932Z,43.15
2019-03-31T10:20:42.758Z,52.08
2019-03-31T10:23:11.538Z,41.20
2019-03-31T10:25:40.396Z,53.00
2019-03-31T10:28:09.183Z,35.38
2019-03-31T10:30:39.984Z,36.13
2019-03-31T10:33:09.107Z,70.50
2019-03-31T10:35:38.039Z,60.33
2019-03-31T10:38:08.035Z,47.85
2019-03-31T10:40:37.038Z,47.90
2019-03-31T10:43:06.490Z,73.20
2019-03-31T10:45:35.258Z,35.65
2019-03-31T10:48:04.305Z,37.73
2019-03-31T10:50:35.555Z,37.50
2019-03-31T10:53:04.848Z,52.75
2019-03-31T10:55:38.482Z,37.13
2019-03-31T10:58:07.438Z,37.00
2019-03-31T11:00:37.979Z,39.55
2019-03-31T11:03:11.873Z,27.65
2019-03-31T11:08:30.987Z,57.30
2019-03-31T11:11:00.283Z,50.40
2019-03-31T11:13:28.978Z,42.08
2019-03-31T11:15:57.750Z,53.20
2019-03-31T11:18:26.638Z,56.20
2019-03-31T11:20:56.116Z,28.85
2019-03-31T11:23:26.356Z,34.38
2019-03-31T11:25:55.001Z,41.45
2019-03-31T11:28:23.515Z,31.62
2019-03-31T11:30:51.986Z,30.72
2019-03-31T11:33:20.453Z,44.85
2019-03-31T11:35:49.001Z,36.10
2019-03-31T11:38:17.600Z,50.83
2019-03-31T11:40:46.221Z,27.32
2019-03-31T11:43:14.909Z,58.48
2019-03-31T11:45:43.728Z,32.60
2019-03-31T11:48:12.299Z,29.18
2019-03-31T11:50:40.760Z,22.40
2019-03-31T11:53:09.231Z,36.58
2019-03-31T11:55:37.808Z,39.67
2019-03-31T11:58:06.366Z,28.80
2019-03-31T12:00:36.509Z,47.25
2019-03-31T12:03:05.064Z,33.02
2019-03-31T12:05:33.602Z,31.77
2019-03-31T12:08:02.077Z,32.85
2019-03-31T12:10:30.940Z,36.20
2019-03-31T12:12:59.442Z,31.35
2019-03-31T12:15:27.899Z,53.08
2019-03-31T12:17:56.361Z,31.07
2019-03-31T12:20:24.852Z,49.35
2019-03-31T12:22:53.578Z,54.67
2019-03-31T12:25:22.070Z,29.18
2019-03-31T12:27:50.542Z,33.40
2019-03-31T12:30:22.077Z,47.17
2019-03-31T12:32:50.565Z,21.70
2019-03-31T12:35:19.038Z,44.33
2019-03-31T12:37:47.727Z,25.65
2019-03-31T12:40:30.870Z,58.45
2019-03-31T12:42:59.696Z,26.40
2019-03-31T12:45:28.161Z,30.68
2019-03-31T12:48:02.355Z,26.57
2019-03-31T12:50:30.897Z,33.23
2019-03-31T12:52:59.381Z,38.35
2019-03-31T12:55:27.939Z,43.28
2019-03-31T12:57:56.384Z,35.83
2019-03-31T13:00:24.992Z,46.73
2019-03-31T13:02:53.535Z,38.38
2019-03-31T13:05:22.004Z,37.05
2019-03-31T13:07:56.492Z,21.00
2019-03-31T13:10:20.745Z,29.63
2019-03-31T13:12:49.592Z,19.20
2019-03-31T13:15:18.121Z,32.67
2019-03-31T13:17:46.586Z,22.20
2019-03-31T13:20:15.499Z,38.25
2019-03-31T13:22:45.827Z,29.50
2019-03-31T13:25:14.330Z,29.87
2019-03-31T13:27:42.831Z,32.35
2019-03-31T13:30:11.430Z,30.52
2019-03-31T13:32:39.895Z,20.52
2019-03-31T13:35:08.774Z,29.37
2019-03-31T13:37:37.695Z,39.53
2019-03-31T13:40:08.395Z,38.95
2019-03-31T13:42:36.941Z,34.98
2019-03-31T13:45:06.612Z,26.75
2019-03-31T13:47:35.090Z,23.57
2019-03-31T13:50:05.479Z,26.07
2019-03-31T13:52:34.023Z,17.98
2019-03-31T13:55:02.562Z,28.45
2019-03-31T13:57:31.996Z,24.70
2019-03-31T14:00:01.232Z,32.40
2019-03-31T14:02:29.702Z,17.23
2019-03-31T14:04:58.248Z,23.98
2019-03-31T14:07:26.703Z,22.80
2019-03-31T14:09:55.164Z,33.90
2019-03-31T14:12:23.641Z,21.55
2019-03-31T14:14:52.131Z,24.27
2019-03-31T14:17:24.303Z,25.40
2019-03-31T14:19:51.277Z,24.85
2019-03-31T14:22:19.731Z,17.85
2019-03-31T14:24:48.215Z,24.63
2019-03-31T14:27:16.678Z,31.50
2019-03-31T14:29:45.138Z,21.15
2019-03-31T14:32:13.626Z,24.72
2019-03-31T14:34:42.154Z,26.42
2019-03-31T14:37:10.618Z,28.55
2019-03-31T14:39:39.165Z,22.40
2019-03-31T14:42:07.635Z,33.28
2019-03-31T14:44:36.134Z,20.97
2019-03-31T14:47:07.445Z,23.67
2019-03-31T14:49:40.065Z,16.87
2019-03-31T14:52:08.606Z,18.50
2019-03-31T14:54:37.067Z,14.23
2019-03-31T14:57:05.644Z,24.75
2019-03-31T14:59:35.712Z,31.05
2019-03-31T15:02:17.104Z,26.07
2019-03-31T15:04:45.686Z,25.37
2019-03-31T15:07:14.229Z,28.65
2019-03-31T15:09:42.725Z,18.85
2019-03-31T15:12:11.198Z,26.30
2019-03-31T15:14:39.735Z,30.17
2019-03-31T15:17:08.192Z,14.05
2019-03-31T15:19:36.650Z,19.45
2019-03-31T15:22:05.145Z,22.62
2019-03-31T15:24:37.301Z,32.38
2019-03-31T15:27:05.761Z,22.37
2019-03-31T15:29:34.228Z,19.30
2019-03-31T15:32:04.296Z,29.20
2019-03-31T15:34:32.788Z,19.10
2019-03-31T15:37:01.820Z,17.23
2019-03-31T15:39:30.286Z,24.15
2019-03-31T15:41:59.069Z,26.05
2019-03-31T15:44:30.427Z,30.85
2019-03-31T15:46:58.908Z,16.80
2019-03-31T15:49:27.369Z,18.35
2019-03-31T15:51:55.836Z,15.03
2019-03-31T15:54:26.059Z,18.82
2019-03-31T15:56:57.460Z,16.80
2019-03-31T15:59:25.988Z,15.08
2019-03-31T16:01:54.697Z,12.73
2019-03-31T16:04:23.153Z,22.30
2019-03-31T16:06:51.620Z,17.73
2019-03-31T16:09:23.565Z,13.93
2019-03-31T16:11:53.835Z,15.38
2019-03-31T16:14:20.472Z,14.85
2019-03-31T16:16:49.002Z,14.28
2019-03-31T16:19:17.519Z,16.67
2019-03-31T16:21:45.978Z,24.20
2019-03-31T16:24:14.460Z,20.32
2019-03-31T16:26:42.930Z,21.05
2019-03-31T16:29:11.470Z,12.43
2019-03-31T16:31:40.004Z,21.20
2019-03-31T16:34:08.485Z,16.37
2019-03-31T16:36:36.952Z,14.07
2019-03-31T16:39:06.670Z,15.93
2019-03-31T16:41:35.157Z,22.07
2019-03-31T16:44:03.690Z,20.57
2019-03-31T16:46:32.185Z,18.70
2019-03-31T16:49:00.658Z,23.42
2019-03-31T16:51:29.188Z,18.75
2019-03-31T16:53:57.677Z,18.50
2019-03-31T16:56:26.213Z,14.55
2019-03-31T16:58:54.701Z,18.57
2019-03-31T17:01:23.222Z,19.73
2019-03-31T17:03:51.692Z,20.65
2019-03-31T17:06:20.159Z,15.38
2019-03-31T17:08:48.600Z,11.15
2019-03-31T17:11:17.068Z,9.83
2019-03-31T17:13:45.536Z,11.43
2019-03-31T17:16:15.587Z,17.25
2019-03-31T17:18:44.216Z,17.55
2019-03-31T17:21:12.674Z,16.02
2019-03-31T17:23:41.141Z,14.33
2019-03-31T17:26:09.612Z,17.87
2019-03-31T17:28:38.155Z,18.02
2019-03-31T17:31:08.423Z,12.58
2019-03-31T17:33:36.938Z,17.50
2019-03-31T17:36:05.454Z,15.95
2019-03-31T17:38:33.972Z,10.95
2019-03-31T17:41:02.503Z,11.75
2019-03-31T17:43:31.016Z,15.32
2019-03-31T17:45:59.620Z,8.33
2019-03-31T17:48:28.098Z,13.65
2019-03-31T17:50:56.565Z,16.42
2019-03-31T17:53:25.354Z,8.85
2019-03-31T17:55:53.907Z,14.40
2019-03-31T17:58:22.369Z,10.15
2019-03-31T18:00:50.894Z,6.05
2019-03-31T18:03:19.383Z,15.83
2019-03-31T18:05:47.853Z,12.37
2019-03-31T18:08:16.331Z,15.03
2019-03-31T18:10:45.070Z,8.33
2019-03-31T18:13:13.637Z,12.23
2019-03-31T18:15:42.159Z,14.30
2019-03-31T18:18:10.655Z,15.15
2019-03-31T18:20:39.125Z,12.82
2019-03-31T18:23:07.613Z,13.00
2019-03-31T18:25:36.206Z,8.08
2019-03-31T18:28:04.707Z,8.80
2019-03-31T18:30:33.176Z,4.92
2019-03-31T18:33:01.718Z,11.48
2019-03-31T18:35:30.178Z,15.05
2019-03-31T18:37:58.678Z,13.35
2019-03-31T18:40:34.768Z,5.83
2019-03-31T18:42:57.412Z,13.98
2019-03-31T18:45:25.973Z,15.38
2019-03-31T18:47:54.419Z,7.55
2019-03-31T18:50:22.859Z,8.08
2019-03-31T18:52:51.363Z,12.98
2019-03-31T18:55:21.771Z,7.00
2019-03-31T18:57:57.365Z,16.77
2019-03-31T19:00:43.360Z,12.60
2019-03-31T19:03:13.487Z,11.10
2019-03-31T19:05:49.493Z,13.53
2019-03-31T19:08:28.545Z,7.75
2019-03-31T19:11:01.801Z,6.97
2019-03-31T19:13:55.349Z,8.15
2019-03-31T19:16:28.430Z,12.98
2019-03-31T19:19:07.202Z,7.28
2019-03-31T19:21:37.390Z,13.10
2019-03-31T19:24:19.749Z,11.63
2019-03-31T19:27:06.019Z,10.60
2019-03-31T19:29:54.122Z,10.63
2019-03-31T19:32:33.097Z,13.32
2019-03-31T19:35:08.819Z,15.05
2019-03-31T19:37:56.910Z,14.05
2019-03-31T19:40:43.431Z,10.58
2019-03-31T19:43:22.425Z,14.63
2019-03-31T19:45:58.769Z,15.48
2019-03-31T19:48:35.023Z,12.15
2019-03-31T19:51:08.580Z,13.22
2019-03-31T19:53:38.673Z,13.10
2019-03-31T19:56:20.513Z,14.70
2019-03-31T19:59:06.848Z,15.53
2019-03-31T20:01:45.668Z,12.60
2019-03-31T20:04:30.821Z,14.15
2019-03-31T20:07:15.712Z,14.45
2019-03-31T20:09:51.853Z,13.05
2019-03-31T20:12:30.898Z,10.50
2019-03-31T20:15:13.013Z,11.33
2019-03-31T20:17:55.185Z,12.07
2019-03-31T20:20:40.568Z,9.35
2019-03-31T20:23:13.407Z,9.65
2019-03-31T20:25:43.505Z,14.20
2019-03-31T20:28:30.054Z,14.00
2019-03-31T20:31:16.255Z,11.10
2019-03-31T20:33:49.143Z,11.48
2019-03-31T20:36:24.660Z,11.08
2019-03-31T20:39:03.699Z,4.75
2019-03-31T20:41:36.738Z,10.08
2019-03-31T20:44:05.191Z,12.65
2019-03-31T20:46:33.675Z,8.95
2019-03-31T20:49:02.134Z,14.13
2019-03-31T20:51:30.681Z,11.90
2019-03-31T20:53:59.187Z,10.98
2019-03-31T20:56:27.660Z,14.43
2019-03-31T20:58:56.141Z,15.35
2019-03-31T21:01:24.581Z,6.40
2019-03-31T21:03:53.052Z,10.60
2019-03-31T21:06:21.513Z,12.53
2019-03-31T21:08:50.031Z,13.65
2019-03-31T21:11:18.496Z,13.13
2019-03-31T21:13:46.947Z,12.00
2019-03-31T21:16:15.408Z,8.93
2019-03-31T21:18:43.937Z,10.88
2019-03-31T21:21:12.398Z,10.43
2019-03-31T21:23:40.843Z,9.28
2019-03-31T21:26:09.303Z,12.07
2019-03-31T21:28:37.752Z,10.18
2019-03-31T21:31:06.219Z,13.78
2019-03-31T21:33:34.940Z,11.95
2019-03-31T21:36:03.420Z,12.98
2019-03-31T21:38:31.861Z,9.65
2019-03-31T21:41:00.315Z,11.12
2019-03-31T21:43:28.769Z,13.68
2019-03-31T21:45:57.220Z,7.35
2019-03-31T21:48:25.687Z,10.45
2019-03-31T21:50:54.153Z,12.63
2019-03-31T21:53:22.598Z,12.30
2019-03-31T21:55:51.056Z,10.68
2019-03-31T21:58:19.767Z,11.35
2019-03-31T22:00:54.974Z,12.63
2019-03-31T22:03:23.549Z,11.48
2019-03-31T22:05:51.995Z,11.50
2019-03-31T22:08:20.456Z,11.55
2019-03-31T22:10:48.908Z,13.70
2019-03-31T22:13:17.628Z,10.05
2019-03-31T22:15:46.072Z,15.23
2019-03-31T22:18:14.525Z,8.55
2019-03-31T22:20:42.985Z,4.08
2019-03-31T22:23:11.444Z,13.78
2019-03-31T22:25:39.917Z,10.65
2019-03-31T22:28:08.430Z,7.50
2019-03-31T22:30:36.961Z,13.08
2019-03-31T22:33:05.414Z,8.40
2019-03-31T22:35:33.931Z,15.72
2019-03-31T22:38:02.712Z,7.53
2019-03-31T22:40:31.162Z,5.97
2019-03-31T22:42:59.650Z,8.53
2019-03-31T22:45:28.154Z,14.00
2019-03-31T22:47:56.602Z,11.35
2019-03-31T22:50:25.059Z,10.80
2019-03-31T22:52:53.496Z,8.00
2019-03-31T22:55:21.955Z,12.25
2019-03-31T22:57:50.401Z,6.25
2019-03-31T23:00:20.920Z,14.13
2019-03-31T23:02:49.432Z,6.97
2019-03-31T23:05:17.880Z,11.88
2019-03-31T23:07:46.425Z,8.55
2019-03-31T23:10:14.994Z,14.93
2019-03-31T23:12:43.448Z,8.70
2019-03-31T23:15:12.124Z,10.50
2019-03-31T23:17:40.565Z,9.63
2019-03-31T23:20:09.164Z,8.33
2019-03-31T23:22:37.605Z,13.85
2019-03-31T23:25:06.994Z,10.90
2019-03-31T23:27:35.467Z,12.20
2019-03-31T23:30:07.848Z,12.98
2019-03-31T23:32:36.392Z,3.87
2019-03-31T23:35:06.933Z,9.43
2019-03-31T23:37:35.453Z,12.37
2019-03-31T23:40:05.012Z,7.17
2019-03-31T23:42:33.725Z,14.58
2019-03-31T23:45:02.449Z,10.08
2019-03-31T23:47:31.254Z,9.83
2019-03-31T23:49:59.695Z,10.95
2019-03-31T23:52:28.155Z,5.40
2019-03-31T23:54:56.612Z,12.00
2019-03-31T23:57:40.913Z,9.25
